Time;durP1;ratioP1;P1;durP2;ratioP2;P2;SDS_P1;SDS_P2;PMS_P1;PMS_P2;Temp;Humidity;BMP_temperature;BMP_pressure;BME280_temperature;BME280_humidity;BME280_pressure;Samples;Min_cycle;Max_cycle;Signal;HPM_P1;HPM_P2
2021/10/26 00:01:49;;;;;;;;;;;20.60;55.70;;;;;;5072566;28;1108;-70
2021/10/26 00:04:15;;;;;;;;;;;20.60;55.80;;;;;;5072452;28;1345;-71
2021/10/26 00:06:41;;;;;;;;;;;20.60;55.80;;;;;;5071104;28;1172;-71
2021/10/26 00:09:06;;;;;;;;;;;20.60;55.80;;;;;;5072711;28;1293;-71
2021/10/26 00:11:32;;;;;;;;;;;20.60;55.80;;;;;;5090090;28;1134;-70
2021/10/26 00:13:58;;;;;;;;;;;20.60;55.80;;;;;;5081824;28;1957;-70
2021/10/26 00:16:23;;;;;;;;;;;20.60;55.90;;;;;;5072789;28;1234;-70
2021/10/26 00:18:48;;;;;;;;;;;20.60;55.90;;;;;;5072630;28;1079;-71
2021/10/26 00:21:17;;;;;;;;;;;20.60;55.90;;;;;;5072339;28;1257;-70
2021/10/26 00:23:42;;;;;;;;;;;20.60;55.90;;;;;;5071392;28;1075;-70
2021/10/26 00:26:08;;;;;;;;;;;20.60;55.90;;;;;;5072143;28;1240;-71
2021/10/26 00:28:33;;;;;;;;;;;20.60;55.90;;;;;;5071592;28;1145;-71
2021/10/26 00:30:58;;;;;;;;;;;20.60;55.90;;;;;;5072390;28;1460;-70
2021/10/26 00:33:24;;;;;;;;;;;20.60;55.90;;;;;;5072453;28;1063;-71
2021/10/26 00:35:50;;;;;;;;;;;20.60;56.00;;;;;;5071784;28;1957;-71
2021/10/26 00:38:15;;;;;;;;;;;20.60;56.00;;;;;;5072526;28;1264;-71
2021/10/26 00:40:44;;;;;;;;;;;20.50;55.90;;;;;;5071236;28;1442;-71
2021/10/26 00:43:09;;;;;;;;;;;20.60;56.10;;;;;;5072408;28;1264;-70
2021/10/26 00:45:35;;;;;;;;;;;20.60;56.10;;;;;;5071904;28;1286;-71
2021/10/26 00:48:00;;;;;;;;;;;20.50;56.00;;;;;;5072273;28;1114;-70
2021/10/26 00:50:25;;;;;;;;;;;20.50;56.00;;;;;;5072254;28;1125;-70
2021/10/26 00:52:51;;;;;;;;;;;20.60;56.10;;;;;;5072308;28;1274;-71
2021/10/26 00:55:17;;;;;;;;;;;20.50;56.10;;;;;;5071725;28;1914;-70
2021/10/26 00:57:42;;;;;;;;;;;20.60;56.20;;;;;;5072339;28;1300;-71
2021/10/26 01:00:08;;;;;;;;;;;20.60;56.20;;;;;;5054042;28;1305;-70
2021/10/26 01:02:34;;;;;;;;;;;20.50;56.20;;;;;;5070913;28;1067;-70
2021/10/26 01:05:00;;;;;;;;;;;20.50;56.10;;;;;;5071507;28;1278;-70
2021/10/26 01:07:26;;;;;;;;;;;20.50;56.20;;;;;;5072172;28;1062;-71
2021/10/26 01:09:51;;;;;;;;;;;20.50;56.20;;;;;;5090043;28;2448;-70
2021/10/26 01:12:17;;;;;;;;;;;20.50;56.20;;;;;;5092674;28;1272;-71
2021/10/26 01:14:42;;;;;;;;;;;20.50;56.20;;;;;;5074348;28;1963;-70
2021/10/26 01:17:08;;;;;;;;;;;20.50;56.20;;;;;;5075641;28;1063;-71
2021/10/26 01:19:42;;;;;;;;;;;20.50;56.20;;;;;;5075441;28;1285;-71
2021/10/26 01:22:07;;;;;;;;;;;20.50;56.30;;;;;;5075605;28;1110;-71
2021/10/26 01:24:33;;;;;;;;;;;20.50;56.30;;;;;;5079018;28;1363;-70
2021/10/26 01:26:59;;;;;;;;;;;20.50;56.30;;;;;;5095929;28;1340;-71
2021/10/26 01:29:24;;;;;;;;;;;20.50;56.30;;;;;;5095640;28;1110;-71
2021/10/26 01:31:49;;;;;;;;;;;20.50;56.30;;;;;;5095498;28;1365;-71
2021/10/26 01:34:15;;;;;;;;;;;20.50;56.30;;;;;;5095477;28;1909;-70
2021/10/26 01:36:40;;;;;;;;;;;20.50;56.30;;;;;;5095497;28;1130;-71
2021/10/26 01:39:06;;;;;;;;;;;20.50;56.30;;;;;;5095759;28;1113;-71
2021/10/26 01:41:31;;;;;;;;;;;20.50;56.40;;;;;;5095406;28;1142;-70
2021/10/26 01:43:57;;;;;;;;;;;20.50;56.40;;;;;;5095239;28;1412;-71
2021/10/26 01:46:22;;;;;;;;;;;20.50;56.40;;;;;;5094943;28;1300;-71
2021/10/26 01:48:48;;;;;;;;;;;20.50;56.40;;;;;;5095472;28;1158;-70
2021/10/26 01:51:13;;;;;;;;;;;20.50;56.40;;;;;;5095248;28;1087;-70
2021/10/26 01:53:39;;;;;;;;;;;20.50;56.40;;;;;;5095158;28;1890;-71
2021/10/26 01:56:04;;;;;;;;;;;20.50;56.40;;;;;;5094763;28;1257;-71
2021/10/26 01:58:30;;;;;;;;;;;20.40;56.40;;;;;;5095142;28;1110;-70
2021/10/26 02:00:55;;;;;;;;;;;20.50;56.50;;;;;;5094884;28;1131;-71
2021/10/26 02:03:21;;;;;;;;;;;20.50;56.50;;;;;;5094956;28;1352;-71
2021/10/26 02:05:46;;;;;;;;;;;20.50;56.40;;;;;;5094686;28;1297;-70
2021/10/26 02:08:12;;;;;;;;;;;20.40;56.40;;;;;;5094973;28;1067;-71
2021/10/26 02:10:37;;;;;;;;;;;20.50;56.50;;;;;;5076834;28;1404;-71
2021/10/26 02:13:02;;;;;;;;;;;20.50;56.50;;;;;;5092040;28;1346;-70
2021/10/26 02:15:28;;;;;;;;;;;20.50;56.50;;;;;;5073872;28;1961;-71
2021/10/26 02:17:53;;;;;;;;;;;20.40;56.50;;;;;;5074568;28;1344;-70
2021/10/26 02:20:19;;;;;;;;;;;20.40;56.50;;;;;;5074470;28;1313;-70
2021/10/26 02:22:44;;;;;;;;;;;20.40;56.60;;;;;;5074456;28;1531;-71
2021/10/26 02:25:09;;;;;;;;;;;20.40;56.50;;;;;;5073882;28;1259;-71
2021/10/26 02:27:35;;;;;;;;;;;20.40;56.60;;;;;;5074303;28;1222;-71
2021/10/26 02:30:00;;;;;;;;;;;20.40;56.60;;;;;;5074308;28;1158;-70
2021/10/26 02:32:26;;;;;;;;;;;20.40;56.60;;;;;;5073930;28;1078;-71
2021/10/26 02:34:51;;;;;;;;;;;20.40;56.60;;;;;;5073210;28;1901;-71
2021/10/26 02:37:17;;;;;;;;;;;20.40;56.60;;;;;;5074022;28;1249;-71
2021/10/26 02:39:42;;;;;;;;;;;20.40;56.60;;;;;;5074216;28;1055;-71
2021/10/26 02:42:07;;;;;;;;;;;20.40;56.60;;;;;;5073738;28;1047;-71
2021/10/26 02:44:33;;;;;;;;;;;20.40;56.60;;;;;;5073691;28;1279;-70
2021/10/26 02:46:58;;;;;;;;;;;20.40;56.60;;;;;;5073611;28;1075;-71
2021/10/26 02:49:24;;;;;;;;;;;20.40;56.70;;;;;;5072680;28;1047;-71
2021/10/26 02:51:49;;;;;;;;;;;20.40;56.70;;;;;;5073867;28;1096;-70
2021/10/26 02:54:15;;;;;;;;;;;20.40;56.70;;;;;;5073400;28;1971;-70
2021/10/26 02:56:42;;;;;;;;;;;20.40;56.70;;;;;;5073611;28;1260;-70
2021/10/26 02:59:07;;;;;;;;;;;20.40;56.70;;;;;;5073711;28;1094;-71
2021/10/26 03:01:33;;;;;;;;;;;20.40;56.70;;;;;;5055424;28;1460;-70
2021/10/26 03:03:58;;;;;;;;;;;20.40;56.70;;;;;;5073647;28;1219;-69
2021/10/26 03:06:24;;;;;;;;;;;20.40;56.70;;;;;;5073099;28;1275;-71
2021/10/26 03:08:49;;;;;;;;;;;20.40;56.80;;;;;;5073608;28;1244;-71
2021/10/26 03:11:16;;;;;;;;;;;20.40;56.80;;;;;;5070537;28;1299;-71
2021/10/26 03:13:41;;;;;;;;;;;20.40;56.80;;;;;;5085306;28;1241;-70
2021/10/26 03:16:07;;;;;;;;;;;20.40;56.80;;;;;;5072557;28;1902;-70
2021/10/26 03:18:32;;;;;;;;;;;20.40;56.80;;;;;;5073731;28;1383;-70
2021/10/26 03:20:58;;;;;;;;;;;20.40;56.80;;;;;;5073213;28;1543;-70
2021/10/26 03:23:24;;;;;;;;;;;20.40;56.80;;;;;;5073228;28;1153;-70
2021/10/26 03:25:50;;;;;;;;;;;20.40;56.80;;;;;;5072735;28;1273;-71
2021/10/26 03:28:15;;;;;;;;;;;20.40;56.80;;;;;;5073195;28;1267;-71
2021/10/26 03:30:41;;;;;;;;;;;20.40;56.80;;;;;;5072831;28;1303;-71
2021/10/26 03:33:07;;;;;;;;;;;20.40;56.80;;;;;;5073202;28;1252;-70
2021/10/26 03:35:32;;;;;;;;;;;20.40;56.90;;;;;;5072800;28;1894;-70
2021/10/26 03:37:58;;;;;;;;;;;20.40;56.90;;;;;;5072665;28;1312;-70
2021/10/26 03:40:23;;;;;;;;;;;20.30;56.80;;;;;;5072990;28;1035;-71
2021/10/26 03:42:48;;;;;;;;;;;20.40;56.90;;;;;;5073066;28;1354;-70
2021/10/26 03:45:14;;;;;;;;;;;20.40;56.90;;;;;;5072284;28;1286;-71
2021/10/26 03:47:40;;;;;;;;;;;20.40;56.90;;;;;;5072997;28;1160;-71
2021/10/26 03:50:06;;;;;;;;;;;20.40;56.90;;;;;;5071623;28;1134;-71
2021/10/26 03:52:31;;;;;;;;;;;20.40;57.00;;;;;;5072908;28;1091;-70
2021/10/26 03:54:57;;;;;;;;;;;20.30;56.90;;;;;;5072390;28;1898;-70
2021/10/26 03:57:23;;;;;;;;;;;20.40;57.00;;;;;;5071588;28;1285;-70
2021/10/26 03:59:48;;;;;;;;;;;20.40;57.00;;;;;;5054565;28;1350;-70
2021/10/26 04:02:22;;;;;;;;;;;20.40;57.00;;;;;;5071567;28;1390;-71
2021/10/26 04:04:48;;;;;;;;;;;20.40;57.00;;;;;;5072498;28;1292;-71
2021/10/26 04:07:13;;;;;;;;;;;20.40;57.00;;;;;;5072678;28;1055;-71
2021/10/26 04:12:25;;;;;;;;;;;20.30;57.00;;;;;;5092895;28;1275;-71
2021/10/26 04:14:54;;;;;;;;;;;20.40;57.00;;;;;;5074116;28;1898;-71
2021/10/26 04:17:20;;;;;;;;;;;20.40;57.10;;;;;;5072621;28;1055;-71
2021/10/26 04:19:47;;;;;;;;;;;20.40;57.10;;;;;;5072708;28;1178;-71
2021/10/26 04:22:12;;;;;;;;;;;20.40;57.10;;;;;;5071428;28;1483;-71
2021/10/26 04:24:38;;;;;;;;;;;20.40;57.70;;;;;;5072443;28;1384;-70
2021/10/26 04:27:03;;;;;;;;;;;20.30;57.10;;;;;;5072338;28;1435;-70
2021/10/26 04:29:29;;;;;;;;;;;20.30;57.10;;;;;;5071313;28;1396;-71
2021/10/26 04:31:54;;;;;;;;;;;20.30;57.10;;;;;;5072559;28;1079;-71
2021/10/26 04:34:20;;;;;;;;;;;20.30;57.10;;;;;;5071949;28;1894;-70
2021/10/26 04:36:45;;;;;;;;;;;20.30;57.10;;;;;;5072549;28;1126;-71
2021/10/26 04:39:10;;;;;;;;;;;20.30;57.10;;;;;;5072444;28;1150;-71
2021/10/26 04:41:37;;;;;;;;;;;20.30;57.00;;;;;;5070951;28;1082;-70
2021/10/26 04:44:02;;;;;;;;;;;20.40;57.10;;;;;;5071070;28;1432;-70
2021/10/26 04:46:34;;;;;;;;;;;20.40;57.10;;;;;;5072075;28;1071;-71
2021/10/26 04:49:00;;;;;;;;;;;20.40;57.00;;;;;;5071883;28;1142;-71
2021/10/26 04:51:25;;;;;;;;;;;20.40;57.00;;;;;;5075275;28;1218;-70
2021/10/26 04:53:50;;;;;;;;;;;20.40;56.90;;;;;;5076007;28;1898;-70
2021/10/26 04:56:16;;;;;;;;;;;20.40;56.90;;;;;;5075675;28;1389;-71
2021/10/26 04:58:41;;;;;;;;;;;20.40;56.80;;;;;;5075971;28;1263;-70
2021/10/26 05:01:07;;;;;;;;;;;20.40;56.70;;;;;;5075998;28;1332;-71
2021/10/26 05:03:32;;;;;;;;;;;20.50;56.70;;;;;;5080309;28;1023;-71
2021/10/26 05:05:58;;;;;;;;;;;20.50;56.70;;;;;;5095883;28;1176;-71
2021/10/26 05:08:23;;;;;;;;;;;20.50;56.60;;;;;;5096042;28;1305;-70
2021/10/26 05:10:49;;;;;;;;;;;20.50;56.60;;;;;;5078173;28;1302;-71
2021/10/26 05:13:14;;;;;;;;;;;20.60;56.60;;;;;;5089077;28;1118;-71
2021/10/26 05:15:42;;;;;;;;;;;20.60;56.50;;;;;;5075222;28;1955;-70
2021/10/26 05:18:08;;;;;;;;;;;20.60;56.50;;;;;;5080056;28;1775;-68
2021/10/26 05:20:35;;;;;;;;;;;20.60;56.50;;;;;;5094058;28;1128;-70
2021/10/26 05:23:02;;;;;;;;;;;20.60;56.40;;;;;;5094435;28;1125;-69
2021/10/26 05:25:28;;;;;;;;;;;20.60;56.40;;;;;;5094662;28;1397;-69
2021/10/26 05:27:53;;;;;;;;;;;20.60;56.40;;;;;;5095658;28;1366;-70
2021/10/26 05:30:19;;;;;;;;;;;20.60;56.40;;;;;;5095171;28;1283;-69
2021/10/26 05:32:44;;;;;;;;;;;20.60;56.30;;;;;;5093724;28;1407;-69
2021/10/26 05:35:10;;;;;;;;;;;20.70;56.30;;;;;;5094858;28;1914;-68
2021/10/26 05:37:36;;;;;;;;;;;20.70;56.30;;;;;;5094362;28;1304;-73
2021/10/26 05:40:02;;;;;;;;;;;20.70;56.30;;;;;;5094391;28;1372;-70
2021/10/26 05:42:28;;;;;;;;;;;20.70;56.30;;;;;;5095973;28;1726;-70
2021/10/26 05:44:54;;;;;;;;;;;20.70;56.30;;;;;;5095573;28;1333;-70
2021/10/26 05:47:19;;;;;;;;;;;20.70;56.30;;;;;;5095360;28;1371;-71
2021/10/26 05:49:45;;;;;;;;;;;20.70;56.30;;;;;;5095370;28;1082;-70
2021/10/26 05:52:10;;;;;;;;;;;20.70;56.20;;;;;;5095060;28;1316;-71
2021/10/26 05:54:36;;;;;;;;;;;20.70;56.20;;;;;;5094569;28;1906;-71
2021/10/26 05:57:01;;;;;;;;;;;20.70;56.20;;;;;;5095056;28;1391;-70
2021/10/26 05:59:27;;;;;;;;;;;20.70;56.20;;;;;;5095211;28;1356;-70
2021/10/26 06:01:52;;;;;;;;;;;20.70;56.20;;;;;;5094897;28;1389;-70
2021/10/26 06:04:18;;;;;;;;;;;20.70;56.20;;;;;;5094973;28;1313;-70
2021/10/26 06:06:44;;;;;;;;;;;20.70;56.20;;;;;;5094995;28;1361;-71
2021/10/26 06:09:10;;;;;;;;;;;20.70;56.10;;;;;;5093672;28;1287;-71
2021/10/26 06:11:35;;;;;;;;;;;20.70;54.50;;;;;;5094919;28;1051;-70
2021/10/26 06:14:04;;;;;;;;;;;20.80;53.80;;;;;;5083252;28;2245;-71
2021/10/26 06:16:33;;;;;;;;;;;20.80;52.50;;;;;;5116021;22;2185;-70
2021/10/26 06:18:59;;;;;;;;;;;20.70;51.60;;;;;;5095662;28;1019;-70
2021/10/26 06:21:25;;;;;;;;;;;20.70;51.20;;;;;;5107659;28;1478;-68
2021/10/26 06:23:50;;;;;;;;;;;20.60;50.70;;;;;;5094324;28;1110;-68
2021/10/26 06:26:15;;;;;;;;;;;20.60;50.80;;;;;;5112372;28;1357;-68
2021/10/26 06:28:41;;;;;;;;;;;20.60;52.70;;;;;;5095333;28;1167;-68
2021/10/26 06:31:06;;;;;;;;;;;20.60;52.60;;;;;;5112760;28;1239;-67
2021/10/26 06:33:32;;;;;;;;;;;20.60;52.50;;;;;;5113285;28;1273;-68
2021/10/26 06:35:57;;;;;;;;;;;20.60;52.60;;;;;;5112507;28;1906;-68
2021/10/26 06:38:23;;;;;;;;;;;20.70;52.70;;;;;;5112738;28;1262;-68
2021/10/26 06:40:48;;;;;;;;;;;20.70;52.80;;;;;;5113386;28;1249;-68
2021/10/26 06:43:14;;;;;;;;;;;20.70;53.00;;;;;;5113743;28;1289;-68
2021/10/26 06:45:39;;;;;;;;;;;20.70;53.20;;;;;;5112007;28;1284;-68
2021/10/26 06:48:05;;;;;;;;;;;20.70;53.40;;;;;;5111731;28;1329;-68
2021/10/26 06:50:30;;;;;;;;;;;20.70;53.40;;;;;;5114175;28;1296;-68
2021/10/26 06:52:55;;;;;;;;;;;20.70;53.60;;;;;;5092273;28;1312;-68
2021/10/26 06:55:21;;;;;;;;;;;20.70;53.70;;;;;;5110417;28;1906;-68
2021/10/26 06:57:49;;;;;;;;;;;20.70;53.80;;;;;;5113781;28;1251;-68
2021/10/26 07:00:14;;;;;;;;;;;20.70;53.80;;;;;;5114273;28;1297;-69
2021/10/26 07:02:46;;;;;;;;;;;20.70;54.00;;;;;;5113768;28;1344;-69
2021/10/26 07:05:14;;;;;;;;;;;20.70;54.10;;;;;;5112261;28;1302;-69
2021/10/26 07:07:39;;;;;;;;;;;20.80;54.10;;;;;;5092213;28;1359;-69
2021/10/26 07:10:05;;;;;;;;;;;20.80;54.10;;;;;;5099334;28;1388;-68
2021/10/26 07:12:30;;;;;;;;;;;20.90;54.00;;;;;;5113103;28;1074;-68
2021/10/26 07:14:56;;;;;;;;;;;21.00;54.00;;;;;;5112246;28;1965;-69
2021/10/26 07:17:21;;;;;;;;;;;21.10;54.00;;;;;;5095050;28;1680;-68
2021/10/26 07:19:47;;;;;;;;;;;21.10;53.90;;;;;;5113221;28;1580;-68
2021/10/26 07:22:13;;;;;;;;;;;21.20;53.80;;;;;;5112972;28;1261;-68
2021/10/26 07:24:38;;;;;;;;;;;21.30;53.80;;;;;;5106743;28;1357;-68
2021/10/26 07:27:05;;;;;;;;;;;21.30;54.30;;;;;;5105405;28;1243;-68
2021/10/26 07:29:31;;;;;;;;;;;21.40;54.70;;;;;;5108468;28;1274;-68
2021/10/26 07:31:56;;;;;;;;;;;21.40;54.80;;;;;;5105743;28;1727;-68
2021/10/26 07:34:22;;;;;;;;;;;21.50;54.90;;;;;;5104048;28;1894;-69
2021/10/26 07:36:49;;;;;;;;;;;21.60;54.70;;;;;;5104883;28;1368;-68
2021/10/26 07:41:52;;;;;;;;;;;21.70;54.50;;;;;;5103451;28;1202;-68
2021/10/26 07:44:18;;;;;;;;;;;21.70;54.80;;;;;;5108290;28;1364;-68
2021/10/26 07:46:43;;;;;;;;;;;21.70;55.00;;;;;;5103772;28;1284;-69
2021/10/26 07:49:09;;;;;;;;;;;21.80;55.00;;;;;;5113012;28;1468;-68
2021/10/26 07:51:34;;;;;;;;;;;21.80;55.40;;;;;;5113218;28;936;-69
2021/10/26 07:54:00;;;;;;;;;;;21.80;55.30;;;;;;5112622;28;1894;-68
2021/10/26 07:56:25;;;;;;;;;;;21.90;54.70;;;;;;5112088;28;1386;-67
2021/10/26 07:58:51;;;;;;;;;;;21.90;54.70;;;;;;5091634;28;1644;-68
2021/10/26 08:01:16;;;;;;;;;;;21.90;54.70;;;;;;5105111;28;1375;-69
2021/10/26 08:03:42;;;;;;;;;;;22.00;54.70;;;;;;5112410;28;1497;-68
2021/10/26 08:06:08;;;;;;;;;;;22.00;54.70;;;;;;5112165;28;1387;-68
2021/10/26 08:08:34;;;;;;;;;;;22.00;54.70;;;;;;5106488;28;1487;-69
2021/10/26 08:10:59;;;;;;;;;;;22.00;54.70;;;;;;5105980;28;1274;-70
2021/10/26 08:13:25;;;;;;;;;;;22.00;54.70;;;;;;5111572;28;1965;-68
2021/10/26 08:15:51;;;;;;;;;;;22.10;54.70;;;;;;5110801;28;1953;-68
2021/10/26 08:18:16;;;;;;;;;;;22.10;54.80;;;;;;5112686;28;1594;-69
2021/10/26 08:20:43;;;;;;;;;;;22.10;54.80;;;;;;5112597;28;1412;-68
2021/10/26 08:23:08;;;;;;;;;;;22.10;54.80;;;;;;5095983;28;1715;-67
2021/10/26 08:25:36;;;;;;;;;;;22.10;54.90;;;;;;5116004;28;1612;-67
2021/10/26 08:28:03;;;;;;;;;;;22.10;55.20;;;;;;5116884;28;1701;-67
2021/10/26 08:33:19;;;;;;;;;;;22.10;55.20;;;;;;5116848;28;1426;-67
2021/10/26 08:35:47;;;;;;;;;;;22.20;55.40;;;;;;5092435;28;2067;-68
2021/10/26 08:38:12;;;;;;;;;;;22.20;55.30;;;;;;5115272;28;1471;-68
2021/10/26 08:40:38;;;;;;;;;;;22.30;55.20;;;;;;5112378;28;1662;-68
2021/10/26 08:43:06;;;;;;;;;;;22.30;55.10;;;;;;5108949;28;1413;-68
2021/10/26 08:45:31;;;;;;;;;;;22.30;55.00;;;;;;5093989;28;1788;-69
2021/10/26 08:47:58;;;;;;;;;;;22.30;55.00;;;;;;5111111;28;2000;-70
2021/10/26 08:50:24;;;;;;;;;;;22.30;54.90;;;;;;5094731;28;1609;-69
2021/10/26 08:52:49;;;;;;;;;;;22.30;55.30;;;;;;5106585;28;1432;-69
2021/10/26 08:55:17;;;;;;;;;;;22.30;55.40;;;;;;5115559;28;1898;-69
2021/10/26 08:57:42;;;;;;;;;;;22.30;55.40;;;;;;5094554;28;1599;-69
2021/10/26 09:00:08;;;;;;;;;;;22.30;55.50;;;;;;5113612;28;1681;-69
2021/10/26 09:02:46;;;;;;;;;;;22.30;55.50;;;;;;5094428;28;1216;-69
2021/10/26 09:05:13;;;;;;;;;;;22.30;55.80;;;;;;5114099;28;1622;-70
2021/10/26 09:07:39;;;;;;;;;;;22.30;55.70;;;;;;5116546;28;1681;-71
2021/10/26 09:10:08;;;;;;;;;;;22.30;55.80;;;;;;5081298;28;1352;-70
2021/10/26 09:17:53;;;;;;;;;;;22.20;56.20;;;;;;5116138;28;1368;-70
2021/10/26 09:20:21;;;;;;;;;;;22.20;56.20;;;;;;5115991;28;812;-70
2021/10/26 09:22:47;;;;;;;;;;;22.20;56.30;;;;;;5115782;28;1362;-71
2021/10/26 09:25:13;;;;;;;;;;;22.20;56.40;;;;;;5115106;28;1378;-70
2021/10/26 09:27:39;;;;;;;;;;;22.20;56.50;;;;;;5115956;28;1460;-70
2021/10/26 09:30:06;;;;;;;;;;;22.20;56.50;;;;;;5116095;28;1161;-69
2021/10/26 09:32:32;;;;;;;;;;;22.20;56.50;;;;;;5097242;28;1563;-70
2021/10/26 09:34:59;;;;;;;;;;;22.20;56.50;;;;;;5113621;28;1909;-69
2021/10/26 09:37:24;;;;;;;;;;;22.30;56.50;;;;;;5115656;28;1398;-70
2021/10/26 09:39:59;;;;;;;;;;;22.30;56.50;;;;;;5116011;28;1548;-70
2021/10/26 09:42:25;;;;;;;;;;;22.30;56.50;;;;;;5097806;28;1459;-71
2021/10/26 09:44:52;;;;;;;;;;;22.30;56.50;;;;;;5096380;28;1604;-70
2021/10/26 09:47:27;;;;;;;;;;;22.30;56.40;;;;;;5093140;28;1254;-71
2021/10/26 09:49:53;;;;;;;;;;;22.30;56.60;;;;;;5107693;28;1571;-70
2021/10/26 09:52:23;;;;;;;;;;;22.30;56.60;;;;;;5114892;28;1685;-69
2021/10/26 09:54:58;;;;;;;;;;;22.40;56.60;;;;;;5114395;28;1905;-70
2021/10/26 09:57:23;;;;;;;;;;;22.30;56.60;;;;;;5115366;28;1352;-70
2021/10/26 09:59:50;;;;;;;;;;;22.30;56.60;;;;;;5097382;28;1260;-70
2021/10/26 10:02:21;;;;;;;;;;;22.40;56.60;;;;;;5115496;28;1146;-70
2021/10/26 10:04:47;;;;;;;;;;;22.40;56.70;;;;;;5115169;28;1677;-71
2021/10/26 10:07:13;;;;;;;;;;;22.40;56.70;;;;;;5097048;28;1409;-71
2021/10/26 10:09:38;;;;;;;;;;;22.40;56.70;;;;;;5097105;28;1545;-69
2021/10/26 10:12:05;;;;;;;;;;;22.40;56.70;;;;;;5115368;28;1471;-71
2021/10/26 10:14:34;;;;;;;;;;;22.40;56.70;;;;;;5114289;28;1906;-70
2021/10/26 10:17:00;;;;;;;;;;;22.40;56.70;;;;;;5092962;28;1632;-70
2021/10/26 10:19:25;;;;;;;;;;;22.40;56.70;;;;;;5110183;28;1662;-70
2021/10/26 10:21:51;;;;;;;;;;;22.40;56.70;;;;;;5093516;28;1639;-70
2021/10/26 10:24:17;;;;;;;;;;;22.40;56.80;;;;;;5094022;28;1595;-70
2021/10/26 10:26:42;;;;;;;;;;;22.40;56.80;;;;;;5093354;28;1684;-71
2021/10/26 10:29:07;;;;;;;;;;;22.40;56.90;;;;;;5094482;28;1386;-70
2021/10/26 10:31:33;;;;;;;;;;;22.40;56.80;;;;;;5114277;28;1613;-70
2021/10/26 10:33:59;;;;;;;;;;;22.40;57.40;;;;;;5114661;28;1710;-70
2021/10/26 10:36:25;;;;;;;;;;;22.40;56.90;;;;;;5114006;28;1384;-70
2021/10/26 10:38:52;;;;;;;;;;;22.30;56.80;;;;;;5094132;28;1747;-70
2021/10/26 10:41:26;;;;;;;;;;;22.40;56.90;;;;;;5096224;28;1675;-70
2021/10/26 10:43:52;;;;;;;;;;;22.40;57.00;;;;;;5114207;28;1581;-69
2021/10/26 10:46:37;;;;;;;;;;;22.40;57.00;;;;;;5112751;28;1592;-69
2021/10/26 10:49:18;;;;;;;;;;;22.40;57.00;;;;;;5114099;28;1688;-70
2021/10/26 10:51:53;;;;;;;;;;;22.40;57.00;;;;;;5114118;28;1396;-69
2021/10/26 10:54:37;;;;;;;;;;;22.40;57.00;;;;;;5113155;28;1909;-69
2021/10/26 10:57:16;;;;;;;;;;;22.30;57.00;;;;;;5114075;28;1370;-69
2021/10/26 10:59:43;;;;;;;;;;;22.30;57.00;;;;;;5114428;28;1392;-68
2021/10/26 11:02:16;;;;;;;;;;;22.30;57.00;;;;;;5113257;28;1419;-69
2021/10/26 11:04:42;;;;;;;;;;;22.30;57.00;;;;;;5113012;28;1416;-69
2021/10/26 11:07:08;;;;;;;;;;;22.30;57.00;;;;;;5095561;28;1587;-71
2021/10/26 11:09:39;;;;;;;;;;;22.30;57.00;;;;;;5109474;28;1988;-70
2021/10/26 11:12:21;;;;;;;;;;;22.30;57.30;;;;;;5079302;28;1663;-69
2021/10/26 11:14:56;;;;;;;;;;;22.30;57.20;;;;;;5094739;28;1898;-71
2021/10/26 11:17:34;;;;;;;;;;;22.40;57.30;;;;;;5112556;28;1003;-72
2021/10/26 11:20:12;;;;;;;;;;;22.30;57.30;;;;;;5113182;28;1098;-71
2021/10/26 11:22:53;;;;;;;;;;;22.40;57.40;;;;;;5094473;28;1396;-72
2021/10/26 11:25:28;;;;;;;;;;;22.40;57.40;;;;;;5112798;28;1278;-69
2021/10/26 11:27:54;;;;;;;;;;;22.30;57.40;;;;;;5113628;28;1412;-68
2021/10/26 11:30:28;;;;;;;;;;;22.40;57.60;;;;;;5092013;28;1026;-68
2021/10/26 11:33:09;;;;;;;;;;;22.40;57.70;;;;;;5100212;28;1023;-68
2021/10/26 11:35:53;;;;;;;;;;;22.40;57.60;;;;;;5112926;28;1917;-68
2021/10/26 11:38:19;;;;;;;;;;;22.40;57.70;;;;;;5113204;28;1439;-68
2021/10/26 11:40:51;;;;;;;;;;;22.40;57.80;;;;;;5095497;28;1014;-68
2021/10/26 11:43:16;;;;;;;;;;;22.30;57.70;;;;;;5113395;28;1352;-68
2021/10/26 11:46:12;;;;;;;;;;;22.30;57.70;;;;;;5112457;28;1296;-68
2021/10/26 11:48:44;;;;;;;;;;;22.30;57.80;;;;;;5095690;28;1697;-68
2021/10/26 11:51:16;;;;;;;;;;;22.30;57.80;;;;;;5113069;28;1650;-68
2021/10/26 11:53:41;;;;;;;;;;;22.30;57.80;;;;;;5094308;28;1642;-68
2021/10/26 11:56:20;;;;;;;;;;;22.30;57.80;;;;;;5112442;28;1898;-68
2021/10/26 11:58:58;;;;;;;;;;;22.30;58.00;;;;;;5112706;28;1698;-68
2021/10/26 12:01:36;;;;;;;;;;;22.30;58.00;;;;;;5113139;28;1647;-67
2021/10/26 12:04:04;;;;;;;;;;;22.30;58.00;;;;;;5112867;28;1343;-69
2021/10/26 12:06:30;;;;;;;;;;;22.30;58.00;;;;;;5081488;28;1463;-69
2021/10/26 12:08:57;;;;;;;;;;;22.30;58.00;;;;;;5085278;28;1691;-69
2021/10/26 12:11:30;;;;;;;;;;;22.30;57.90;;;;;;5108687;28;1632;-69
2021/10/26 12:14:12;;;;;;;;;;;22.30;58.00;;;;;;5112291;28;1585;-69
2021/10/26 12:16:37;;;;;;;;;;;22.20;57.90;;;;;;5104262;22;2980;-71
2021/10/26 12:19:03;;;;;;;;;;;22.20;58.00;;;;;;5090901;28;2145;-71
2021/10/26 12:21:29;;;;;;;;;;;22.20;58.00;;;;;;5092549;28;1689;-71
2021/10/26 12:23:54;;;;;;;;;;;22.20;58.00;;;;;;5091672;28;1398;-70
2021/10/26 12:26:20;;;;;;;;;;;22.20;58.00;;;;;;5082530;28;1406;-71
2021/10/26 12:28:58;;;;;;;;;;;22.20;58.00;;;;;;5072359;28;1060;-71
2021/10/26 12:31:26;;;;;;;;;;;22.20;58.10;;;;;;5072152;28;1264;-72
2021/10/26 12:34:01;;;;;;;;;;;22.20;58.10;;;;;;5054337;28;1631;-71
2021/10/26 12:36:27;;;;;;;;;;;22.20;58.10;;;;;;5053632;28;1961;-71
2021/10/26 12:39:04;;;;;;;;;;;22.30;58.00;;;;;;5054335;28;1539;-71
2021/10/26 12:41:36;;;;;;;;;;;22.30;58.00;;;;;;5054808;28;1378;-71
2021/10/26 12:44:06;;;;;;;;;;;22.30;58.00;;;;;;5054172;28;1489;-71
2021/10/26 12:46:32;;;;;;;;;;;22.30;57.80;;;;;;5071788;28;1660;-71
2021/10/26 12:49:04;;;;;;;;;;;22.30;57.80;;;;;;5072061;28;1635;-71
2021/10/26 12:51:29;;;;;;;;;;;22.30;57.80;;;;;;5054533;28;1409;-71
2021/10/26 12:53:55;;;;;;;;;;;22.30;57.80;;;;;;5071903;28;1375;-71
2021/10/26 12:56:27;;;;;;;;;;;22.30;57.80;;;;;;5054168;28;1969;-72
2021/10/26 12:59:08;;;;;;;;;;;22.30;57.80;;;;;;5054327;28;1377;-71
2021/10/26 13:01:34;;;;;;;;;;;22.30;57.80;;;;;;5071792;28;1655;-71
2021/10/26 13:04:04;;;;;;;;;;;22.30;57.80;;;;;;5053843;28;1648;-71
2021/10/26 13:06:31;;;;;;;;;;;22.30;57.80;;;;;;5053543;28;1673;-71
2021/10/26 13:08:57;;;;;;;;;;;22.30;58.00;;;;;;5053939;28;1738;-71
2021/10/26 13:11:23;;;;;;;;;;;22.30;58.20;;;;;;5056890;28;1380;-71
2021/10/26 13:13:56;;;;;;;;;;;22.20;58.30;;;;;;5057165;28;1195;-70
2021/10/26 13:16:31;;;;;;;;;;;22.20;58.40;;;;;;5057356;28;1902;-71
2021/10/26 13:19:08;;;;;;;;;;;22.20;58.50;;;;;;5075319;28;1635;-72
2021/10/26 13:21:33;;;;;;;;;;;22.20;58.50;;;;;;5075479;28;1115;-72
2021/10/26 13:23:59;;;;;;;;;;;22.10;58.60;;;;;;5074913;28;1346;-71
2021/10/26 13:26:24;;;;;;;;;;;22.10;58.70;;;;;;5074309;28;1337;-71
2021/10/26 13:28:49;;;;;;;;;;;22.10;58.70;;;;;;5075332;28;1435;-73
2021/10/26 13:31:19;;;;;;;;;;;22.10;59.40;;;;;;5040169;28;1634;-72
2021/10/26 13:33:44;;;;;;;;;;;22.10;58.80;;;;;;5057041;28;1395;-71
2021/10/26 13:36:11;;;;;;;;;;;22.10;58.80;;;;;;5056248;28;1902;-71
2021/10/26 13:38:37;;;;;;;;;;;22.10;59.00;;;;;;5074968;28;1512;-72
2021/10/26 13:41:03;;;;;;;;;;;22.10;58.90;;;;;;5075537;28;1396;-71
2021/10/26 13:43:29;;;;;;;;;;;22.10;59.00;;;;;;5049926;28;1545;-68
2021/10/26 13:46:01;;;;;;;;;;;22.10;59.00;;;;;;5056257;28;1558;-72
2021/10/26 13:48:29;;;;;;;;;;;22.10;59.00;;;;;;5074022;28;1262;-72
2021/10/26 13:50:55;;;;;;;;;;;22.10;59.00;;;;;;5073966;28;1385;-71
2021/10/26 13:53:20;;;;;;;;;;;22.10;59.00;;;;;;5073583;28;1344;-73
2021/10/26 13:55:48;;;;;;;;;;;22.00;59.00;;;;;;5049727;28;2044;-72
2021/10/26 13:58:13;;;;;;;;;;;22.10;59.10;;;;;;5076129;28;1533;-71
2021/10/26 14:00:40;;;;;;;;;;;22.10;59.10;;;;;;5056966;28;1185;-73
2021/10/26 14:03:06;;;;;;;;;;;22.10;59.10;;;;;;5073909;28;1461;-72
2021/10/26 14:05:31;;;;;;;;;;;22.00;59.00;;;;;;5072478;28;1353;-72
2021/10/26 14:07:58;;;;;;;;;;;22.00;59.00;;;;;;5071935;28;1446;-72
2021/10/26 14:10:23;;;;;;;;;;;22.10;59.10;;;;;;5039932;28;1363;-72
2021/10/26 14:12:48;;;;;;;;;;;22.00;59.10;;;;;;5055498;28;1642;-71
2021/10/26 14:15:14;;;;;;;;;;;22.00;59.20;;;;;;5056247;28;1959;-71
2021/10/26 14:17:40;;;;;;;;;;;22.10;59.20;;;;;;5074259;28;1651;-72
2021/10/26 14:20:06;;;;;;;;;;;22.00;59.20;;;;;;5073133;28;1403;-71
2021/10/26 14:22:31;;;;;;;;;;;22.10;59.30;;;;;;5073193;28;1456;-72
2021/10/26 14:24:57;;;;;;;;;;;22.10;59.20;;;;;;5072179;28;1530;-71
2021/10/26 14:27:22;;;;;;;;;;;22.00;59.20;;;;;;5054707;28;1497;-71
2021/10/26 14:29:47;;;;;;;;;;;22.00;59.30;;;;;;5072849;28;1523;-72
2021/10/26 14:32:13;;;;;;;;;;;22.00;59.30;;;;;;5073220;28;1446;-72
2021/10/26 14:34:40;;;;;;;;;;;22.00;59.30;;;;;;5070314;28;1925;-72
2021/10/26 14:37:15;;;;;;;;;;;22.00;59.30;;;;;;5069172;28;2189;-72
2021/10/26 14:55:57;;;;;;;;;;;22.00;59.40;;;;;;5054211;28;1906;-71
2021/10/26 14:58:17;;;;;;;;;;;22.00;59.40;;;;;;5072107;28;1281;-72
2021/10/26 15:00:42;;;;;;;;;;;22.00;59.40;;;;;;5054587;28;1382;-72